Rayong, Thailand

4:00 AM ICT on September 28, 2016 (GMT +0700)
Mae Rumphueng Beach (750m Inland) | | Change Station

Elev 43 ft 12.62 °N, 101.39 °E | Updated 33 seconds ago

Light Rain
Light Rain
75.2 °F
Feels Like 74 °F
N
0.0
Wind Variable Wind from East
Gusts 0.0 mph

Today
High -- | Low -- °F
--% Chance of Precip.
Yesterday
High -- | Low -- °F
Precip. -- in
Pressure 29.71 in
Visibility 3.7 miles
Clouds Few 1800 ft
Scattered Clouds 3500 ft
Mostly Cloudy 10000 ft
Heat Index 74 °F
Dew Point 72 °F
Humidity 91%
Rainfall 0.11 in
Snow Depth Not available.
6:03 AM 6:06 PM
Waning Crescent, 9% visible
METAR VTBU 272030Z 21003KT 6000 -RA FEW018CB SCT035 BKN100 25/23 Q1006 NOSIG
Pressure 29.71 in
Visibility 3.7 miles
Clouds Few 1800 ft
Scattered Clouds 3500 ft
Mostly Cloudy 10000 ft
Heat Index 74 °F
Dew Point 72 °F
Humidity 91%
Rainfall 0.11 in
Snow Depth Not available.
6:03 AM 6:06 PM
Waning Crescent, 9% visible
METAR VTBU 272030Z 21003KT 6000 -RA FEW018CB SCT035 BKN100 25/23 Q1006 NOSIG

10-Day Weather Forecast

No radar image for this location.
×

Almanac

Astronomy

Sep. 28, 2016 Rise Set
Actual Time
Civil Twilight
Nautical Twilight
Astronomical Twilight
Moon
Length of Visible Light
Length of Day
Tomorrow will be .
, % of the Moon is Illuminated

Today's Extremes

Country Highs Country Lows

Community

WunderPhotos

Upload Photos

1,942,168 photos uploaded!

WunderBlog® & News

Nearby

Air Quality

  Air Quality AQ Index Pollutant
Not available.

Snow Depth

Station Depth Elevation

Earthquake Activity

City Distance Mag. Time & Date
Minimum magnitude displayed is 2.5.

Coastal Water Temperatures

Place Temperature

Stations

Nearby Weather Stations

Station Location Temp. Windchill Dew Point Humidity Wind Precip. Elev Updated Type